sensor_id;sensor_type;location;lat;lon;timestamp;P1;durP1;ratioP1;P2;durP2;ratioP2
57339;SDS011;43174;50.930;18.170;2022-08-19T00:02:21;8.00;;;7.40;;
57339;SDS011;43174;50.930;18.170;2022-08-19T00:04:47;9.00;;;8.40;;
57339;SDS011;43174;50.930;18.170;2022-08-19T00:07:17;8.50;;;7.90;;
57339;SDS011;43174;50.930;18.170;2022-08-19T00:09:43;8.80;;;8.20;;
57339;SDS011;43174;50.930;18.170;2022-08-19T00:12:08;8.10;;;7.50;;
57339;SDS011;43174;50.930;18.170;2022-08-19T00:14:34;8.30;;;7.70;;
57339;SDS011;43174;50.930;18.170;2022-08-19T00:17:00;8.90;;;8.30;;
57339;SDS011;43174;50.930;18.170;2022-08-19T00:19:26;8.90;;;8.30;;
57339;SDS011;43174;50.930;18.170;2022-08-19T00:21:52;9.30;;;8.10;;
57339;SDS011;43174;50.930;18.170;2022-08-19T00:24:18;8.60;;;7.80;;
57339;SDS011;43174;50.930;18.170;2022-08-19T00:26:44;8.80;;;8.10;;
57339;SDS011;43174;50.930;18.170;2022-08-19T00:29:11;8.70;;;7.80;;
57339;SDS011;43174;50.930;18.170;2022-08-19T00:31:38;9.60;;;8.90;;
57339;SDS011;43174;50.930;18.170;2022-08-19T00:34:03;9.00;;;8.30;;
57339;SDS011;43174;50.930;18.170;2022-08-19T00:36:29;8.70;;;7.90;;
57339;SDS011;43174;50.930;18.170;2022-08-19T00:38:55;8.70;;;8.10;;
57339;SDS011;43174;50.930;18.170;2022-08-19T00:41:21;9.50;;;8.90;;
57339;SDS011;43174;50.930;18.170;2022-08-19T00:44:02;9.20;;;8.60;;
57339;SDS011;43174;50.930;18.170;2022-08-19T00:46:28;9.60;;;8.90;;
57339;SDS011;43174;50.930;18.170;2022-08-19T00:48:54;9.10;;;8.40;;
57339;SDS011;43174;50.930;18.170;2022-08-19T00:51:21;10.20;;;9.50;;
57339;SDS011;43174;50.930;18.170;2022-08-19T00:53:48;9.80;;;9.10;;
57339;SDS011;43174;50.930;18.170;2022-08-19T00:56:14;9.70;;;8.80;;
57339;SDS011;43174;50.930;18.170;2022-08-19T00:58:40;9.00;;;8.50;;
57339;SDS011;43174;50.930;18.170;2022-08-19T01:01:06;10.00;;;9.40;;
57339;SDS011;43174;50.930;18.170;2022-08-19T01:03:33;10.00;;;9.20;;
57339;SDS011;43174;50.930;18.170;2022-08-19T01:05:59;10.60;;;9.80;;
57339;SDS011;43174;50.930;18.170;2022-08-19T01:08:25;10.20;;;9.00;;
57339;SDS011;43174;50.930;18.170;2022-08-19T01:10:55;9.80;;;9.10;;
57339;SDS011;43174;50.930;18.170;2022-08-19T01:13:22;10.40;;;9.70;;
57339;SDS011;43174;50.930;18.170;2022-08-19T01:15:50;10.40;;;9.80;;
57339;SDS011;43174;50.930;18.170;2022-08-19T01:18:18;10.40;;;9.60;;
57339;SDS011;43174;50.930;18.170;2022-08-19T01:20:44;10.00;;;9.20;;
57339;SDS011;43174;50.930;18.170;2022-08-19T01:23:10;10.00;;;9.40;;
57339;SDS011;43174;50.930;18.170;2022-08-19T01:28:05;10.90;;;10.10;;
57339;SDS011;43174;50.930;18.170;2022-08-19T01:30:32;10.80;;;10.10;;
57339;SDS011;43174;50.930;18.170;2022-08-19T01:32:59;10.50;;;9.60;;
57339;SDS011;43174;50.930;18.170;2022-08-19T01:35:26;10.50;;;9.90;;
57339;SDS011;43174;50.930;18.170;2022-08-19T01:38:03;10.60;;;9.80;;
57339;SDS011;43174;50.930;18.170;2022-08-19T01:40:33;11.30;;;10.40;;
57339;SDS011;43174;50.930;18.170;2022-08-19T01:43:00;10.30;;;9.40;;
57339;SDS011;43174;50.930;18.170;2022-08-19T01:45:26;10.10;;;9.40;;
57339;SDS011;43174;50.930;18.170;2022-08-19T01:47:53;11.20;;;10.50;;
57339;SDS011;43174;50.930;18.170;2022-08-19T01:50:19;10.80;;;10.10;;
57339;SDS011;43174;50.930;18.170;2022-08-19T01:52:45;11.00;;;10.20;;
57339;SDS011;43174;50.930;18.170;2022-08-19T01:55:12;12.30;;;9.80;;
57339;SDS011;43174;50.930;18.170;2022-08-19T01:57:37;10.70;;;9.80;;
57339;SDS011;43174;50.930;18.170;2022-08-19T02:00:06;10.60;;;10.00;;
57339;SDS011;43174;50.930;18.170;2022-08-19T02:02:32;10.70;;;10.10;;
57339;SDS011;43174;50.930;18.170;2022-08-19T02:04:58;11.20;;;10.60;;
57339;SDS011;43174;50.930;18.170;2022-08-19T02:07:24;11.00;;;10.20;;
57339;SDS011;43174;50.930;18.170;2022-08-19T02:09:49;11.90;;;10.80;;
57339;SDS011;43174;50.930;18.170;2022-08-19T02:12:15;11.00;;;10.20;;
57339;SDS011;43174;50.930;18.170;2022-08-19T02:14:42;11.30;;;10.50;;
57339;SDS011;43174;50.930;18.170;2022-08-19T02:17:07;11.10;;;10.20;;
57339;SDS011;43174;50.930;18.170;2022-08-19T02:19:33;11.30;;;10.50;;
57339;SDS011;43174;50.930;18.170;2022-08-19T02:21:59;12.20;;;11.20;;
57339;SDS011;43174;50.930;18.170;2022-08-19T02:24:25;12.40;;;11.40;;
57339;SDS011;43174;50.930;18.170;2022-08-19T02:26:51;11.50;;;10.50;;
57339;SDS011;43174;50.930;18.170;2022-08-19T02:29:16;10.90;;;10.20;;
57339;SDS011;43174;50.930;18.170;2022-08-19T02:31:42;11.40;;;10.60;;
57339;SDS011;43174;50.930;18.170;2022-08-19T02:34:07;12.50;;;11.50;;
57339;SDS011;43174;50.930;18.170;2022-08-19T02:36:32;11.70;;;11.00;;
57339;SDS011;43174;50.930;18.170;2022-08-19T02:38:58;12.10;;;11.20;;
57339;SDS011;43174;50.930;18.170;2022-08-19T02:41:25;11.20;;;10.50;;
57339;SDS011;43174;50.930;18.170;2022-08-19T02:43:50;14.70;;;11.40;;
57339;SDS011;43174;50.930;18.170;2022-08-19T02:46:20;12.50;;;11.70;;
57339;SDS011;43174;50.930;18.170;2022-08-19T02:48:48;12.90;;;11.80;;
57339;SDS011;43174;50.930;18.170;2022-08-19T02:51:18;11.20;;;10.40;;
57339;SDS011;43174;50.930;18.170;2022-08-19T02:53:44;11.80;;;11.00;;
57339;SDS011;43174;50.930;18.170;2022-08-19T02:56:09;12.50;;;11.70;;
57339;SDS011;43174;50.930;18.170;2022-08-19T02:58:35;12.70;;;11.90;;
57339;SDS011;43174;50.930;18.170;2022-08-19T03:01:00;12.20;;;11.20;;
57339;SDS011;43174;50.930;18.170;2022-08-19T03:03:26;11.50;;;10.80;;
57339;SDS011;43174;50.930;18.170;2022-08-19T03:06:02;12.90;;;11.80;;
57339;SDS011;43174;50.930;18.170;2022-08-19T03:08:27;12.70;;;11.70;;
57339;SDS011;43174;50.930;18.170;2022-08-19T03:10:53;13.00;;;12.00;;
57339;SDS011;43174;50.930;18.170;2022-08-19T03:13:19;12.00;;;11.20;;
57339;SDS011;43174;50.930;18.170;2022-08-19T03:15:45;11.60;;;10.80;;
57339;SDS011;43174;50.930;18.170;2022-08-19T03:18:11;12.50;;;11.50;;
57339;SDS011;43174;50.930;18.170;2022-08-19T03:20:44;12.90;;;12.00;;
57339;SDS011;43174;50.930;18.170;2022-08-19T03:23:10;12.80;;;11.80;;
57339;SDS011;43174;50.930;18.170;2022-08-19T03:25:38;12.90;;;12.00;;
57339;SDS011;43174;50.930;18.170;2022-08-19T03:28:07;12.50;;;11.60;;
57339;SDS011;43174;50.930;18.170;2022-08-19T03:30:33;12.10;;;11.30;;
57339;SDS011;43174;50.930;18.170;2022-08-19T03:32:58;13.80;;;12.70;;
57339;SDS011;43174;50.930;18.170;2022-08-19T03:35:24;13.20;;;12.30;;
57339;SDS011;43174;50.930;18.170;2022-08-19T03:37:50;14.60;;;13.30;;
57339;SDS011;43174;50.930;18.170;2022-08-19T03:40:16;13.60;;;12.80;;
57339;SDS011;43174;50.930;18.170;2022-08-19T03:42:41;13.00;;;12.20;;
57339;SDS011;43174;50.930;18.170;2022-08-19T03:45:07;13.10;;;12.20;;
57339;SDS011;43174;50.930;18.170;2022-08-19T03:47:33;14.20;;;13.10;;
57339;SDS011;43174;50.930;18.170;2022-08-19T03:49:59;13.20;;;12.10;;
57339;SDS011;43174;50.930;18.170;2022-08-19T03:52:24;13.10;;;12.10;;
57339;SDS011;43174;50.930;18.170;2022-08-19T03:54:50;12.80;;;11.90;;
57339;SDS011;43174;50.930;18.170;2022-08-19T03:57:16;12.90;;;12.10;;
57339;SDS011;43174;50.930;18.170;2022-08-19T03:59:41;13.70;;;12.70;;
57339;SDS011;43174;50.930;18.170;2022-08-19T04:02:08;13.20;;;12.40;;
57339;SDS011;43174;50.930;18.170;2022-08-19T04:04:34;13.40;;;12.50;;
57339;SDS011;43174;50.930;18.170;2022-08-19T04:07:00;12.40;;;11.50;;
57339;SDS011;43174;50.930;18.170;2022-08-19T04:09:26;12.30;;;11.50;;
57339;SDS011;43174;50.930;18.170;2022-08-19T04:11:52;13.40;;;12.40;;
57339;SDS011;43174;50.930;18.170;2022-08-19T04:14:22;13.20;;;12.30;;
57339;SDS011;43174;50.930;18.170;2022-08-19T04:16:49;12.80;;;11.80;;
57339;SDS011;43174;50.930;18.170;2022-08-19T04:19:15;12.90;;;11.60;;
57339;SDS011;43174;50.930;18.170;2022-08-19T04:21:43;14.10;;;12.70;;
57339;SDS011;43174;50.930;18.170;2022-08-19T04:24:08;14.20;;;12.90;;
57339;SDS011;43174;50.930;18.170;2022-08-19T04:26:35;13.20;;;12.40;;
57339;SDS011;43174;50.930;18.170;2022-08-19T04:29:03;12.80;;;11.80;;
57339;SDS011;43174;50.930;18.170;2022-08-19T04:31:30;13.30;;;11.90;;
57339;SDS011;43174;50.930;18.170;2022-08-19T04:33:57;13.50;;;12.50;;
57339;SDS011;43174;50.930;18.170;2022-08-19T04:36:27;12.90;;;11.90;;
57339;SDS011;43174;50.930;18.170;2022-08-19T04:38:54;13.60;;;12.30;;
57339;SDS011;43174;50.930;18.170;2022-08-19T04:41:19;13.50;;;12.30;;
57339;SDS011;43174;50.930;18.170;2022-08-19T04:44:04;12.50;;;11.70;;
57339;SDS011;43174;50.930;18.170;2022-08-19T04:46:29;12.80;;;11.90;;
57339;SDS011;43174;50.930;18.170;2022-08-19T04:48:58;13.60;;;12.50;;
57339;SDS011;43174;50.930;18.170;2022-08-19T04:51:24;11.70;;;11.00;;
57339;SDS011;43174;50.930;18.170;2022-08-19T04:53:50;13.30;;;12.20;;
57339;SDS011;43174;50.930;18.170;2022-08-19T04:56:17;13.60;;;12.50;;
57339;SDS011;43174;50.930;18.170;2022-08-19T04:58:44;13.50;;;12.60;;
57339;SDS011;43174;50.930;18.170;2022-08-19T05:01:14;13.30;;;12.40;;
57339;SDS011;43174;50.930;18.170;2022-08-19T05:03:42;12.80;;;11.90;;
57339;SDS011;43174;50.930;18.170;2022-08-19T05:06:09;12.60;;;11.50;;
57339;SDS011;43174;50.930;18.170;2022-08-19T05:08:36;12.50;;;11.60;;
57339;SDS011;43174;50.930;18.170;2022-08-19T05:11:07;12.70;;;11.60;;
57339;SDS011;43174;50.930;18.170;2022-08-19T05:13:32;12.30;;;11.50;;
57339;SDS011;43174;50.930;18.170;2022-08-19T05:15:58;12.40;;;11.50;;
57339;SDS011;43174;50.930;18.170;2022-08-19T05:18:24;13.10;;;12.00;;
57339;SDS011;43174;50.930;18.170;2022-08-19T05:21:09;13.00;;;11.80;;
57339;SDS011;43174;50.930;18.170;2022-08-19T05:23:53;13.00;;;12.00;;
57339;SDS011;43174;50.930;18.170;2022-08-19T05:26:19;11.70;;;10.90;;
57339;SDS011;43174;50.930;18.170;2022-08-19T05:28:45;12.70;;;11.80;;
57339;SDS011;43174;50.930;18.170;2022-08-19T05:31:10;12.70;;;11.70;;
57339;SDS011;43174;50.930;18.170;2022-08-19T05:33:38;12.90;;;11.70;;
57339;SDS011;43174;50.930;18.170;2022-08-19T05:36:05;14.20;;;12.60;;
57339;SDS011;43174;50.930;18.170;2022-08-19T05:38:33;13.70;;;12.50;;
57339;SDS011;43174;50.930;18.170;2022-08-19T05:40:58;13.50;;;12.40;;
57339;SDS011;43174;50.930;18.170;2022-08-19T05:43:24;14.20;;;12.60;;
57339;SDS011;43174;50.930;18.170;2022-08-19T05:45:50;12.80;;;11.80;;
57339;SDS011;43174;50.930;18.170;2022-08-19T05:48:16;12.70;;;11.50;;
57339;SDS011;43174;50.930;18.170;2022-08-19T05:50:45;12.40;;;11.10;;
57339;SDS011;43174;50.930;18.170;2022-08-19T05:53:12;11.90;;;11.10;;
57339;SDS011;43174;50.930;18.170;2022-08-19T05:55:38;12.10;;;11.00;;
57339;SDS011;43174;50.930;18.170;2022-08-19T05:58:04;11.20;;;10.20;;
57339;SDS011;43174;50.930;18.170;2022-08-19T06:00:33;10.40;;;9.50;;
57339;SDS011;43174;50.930;18.170;2022-08-19T06:02:59;10.60;;;9.90;;
57339;SDS011;43174;50.930;18.170;2022-08-19T06:05:31;10.90;;;10.10;;
57339;SDS011;43174;50.930;18.170;2022-08-19T06:07:56;10.40;;;9.60;;
57339;SDS011;43174;50.930;18.170;2022-08-19T06:10:24;10.40;;;9.60;;
57339;SDS011;43174;50.930;18.170;2022-08-19T06:12:51;14.60;;;9.40;;
57339;SDS011;43174;50.930;18.170;2022-08-19T06:15:17;9.90;;;9.20;;
57339;SDS011;43174;50.930;18.170;2022-08-19T06:17:43;10.70;;;9.50;;
57339;SDS011;43174;50.930;18.170;2022-08-19T06:20:11;9.60;;;8.90;;
57339;SDS011;43174;50.930;18.170;2022-08-19T06:22:39;9.10;;;8.50;;
57339;SDS011;43174;50.930;18.170;2022-08-19T06:25:05;9.00;;;8.30;;
57339;SDS011;43174;50.930;18.170;2022-08-19T06:27:30;9.10;;;8.40;;
57339;SDS011;43174;50.930;18.170;2022-08-19T06:29:57;9.00;;;8.20;;
57339;SDS011;43174;50.930;18.170;2022-08-19T06:32:23;9.20;;;8.60;;
57339;SDS011;43174;50.930;18.170;2022-08-19T06:34:49;9.30;;;8.50;;
57339;SDS011;43174;50.930;18.170;2022-08-19T06:37:14;10.50;;;8.30;;
57339;SDS011;43174;50.930;18.170;2022-08-19T06:39:41;8.40;;;7.70;;
57339;SDS011;43174;50.930;18.170;2022-08-19T06:42:07;9.00;;;8.20;;
57339;SDS011;43174;50.930;18.170;2022-08-19T06:44:36;8.80;;;7.90;;
57339;SDS011;43174;50.930;18.170;2022-08-19T06:47:03;8.20;;;7.50;;
57339;SDS011;43174;50.930;18.170;2022-08-19T06:49:29;8.10;;;7.40;;
57339;SDS011;43174;50.930;18.170;2022-08-19T06:51:56;11.50;;;7.90;;
57339;SDS011;43174;50.930;18.170;2022-08-19T06:54:24;10.30;;;7.20;;
57339;SDS011;43174;50.930;18.170;2022-08-19T06:56:51;8.40;;;7.00;;
57339;SDS011;43174;50.930;18.170;2022-08-19T06:59:20;8.60;;;7.00;;
57339;SDS011;43174;50.930;18.170;2022-08-19T07:01:48;7.40;;;6.80;;
57339;SDS011;43174;50.930;18.170;2022-08-19T07:04:16;6.60;;;5.80;;
57339;SDS011;43174;50.930;18.170;2022-08-19T07:06:43;8.60;;;6.50;;
57339;SDS011;43174;50.930;18.170;2022-08-19T07:09:09;7.80;;;6.40;;
57339;SDS011;43174;50.930;18.170;2022-08-19T07:11:34;11.60;;;5.50;;
57339;SDS011;43174;50.930;18.170;2022-08-19T07:14:00;8.60;;;6.30;;
57339;SDS011;43174;50.930;18.170;2022-08-19T07:16:26;7.00;;;6.10;;
57339;SDS011;43174;50.930;18.170;2022-08-19T07:18:53;6.30;;;5.80;;
57339;SDS011;43174;50.930;18.170;2022-08-19T07:21:20;10.20;;;5.90;;
57339;SDS011;43174;50.930;18.170;2022-08-19T07:23:47;8.40;;;6.20;;
57339;SDS011;43174;50.930;18.170;2022-08-19T07:26:17;8.10;;;6.10;;
57339;SDS011;43174;50.930;18.170;2022-08-19T07:28:44;8.10;;;5.80;;
57339;SDS011;43174;50.930;18.170;2022-08-19T07:31:11;8.40;;;6.40;;
57339;SDS011;43174;50.930;18.170;2022-08-19T07:33:38;8.60;;;6.30;;
57339;SDS011;43174;50.930;18.170;2022-08-19T07:36:04;8.40;;;6.40;;
57339;SDS011;43174;50.930;18.170;2022-08-19T07:38:31;10.10;;;6.50;;
57339;SDS011;43174;50.930;18.170;2022-08-19T07:40:57;9.10;;;6.30;;
57339;SDS011;43174;50.930;18.170;2022-08-19T07:43:23;8.40;;;6.20;;
57339;SDS011;43174;50.930;18.170;2022-08-19T07:45:52;9.10;;;6.10;;
57339;SDS011;43174;50.930;18.170;2022-08-19T07:48:22;6.90;;;6.30;;
57339;SDS011;43174;50.930;18.170;2022-08-19T07:50:58;7.40;;;6.30;;
57339;SDS011;43174;50.930;18.170;2022-08-19T07:53:28;9.30;;;6.20;;
57339;SDS011;43174;50.930;18.170;2022-08-19T07:55:54;9.40;;;6.30;;
57339;SDS011;43174;50.930;18.170;2022-08-19T07:58:20;8.80;;;6.50;;
57339;SDS011;43174;50.930;18.170;2022-08-19T08:00:47;9.10;;;6.70;;
57339;SDS011;43174;50.930;18.170;2022-08-19T08:03:15;6.90;;;6.30;;
57339;SDS011;43174;50.930;18.170;2022-08-19T08:05:41;6.60;;;6.00;;
57339;SDS011;43174;50.930;18.170;2022-08-19T08:08:25;7.00;;;6.50;;
57339;SDS011;43174;50.930;18.170;2022-08-19T08:11:09;10.90;;;6.30;;
57339;SDS011;43174;50.930;18.170;2022-08-19T08:13:35;9.10;;;6.60;;
57339;SDS011;43174;50.930;18.170;2022-08-19T08:16:01;10.30;;;6.70;;
57339;SDS011;43174;50.930;18.170;2022-08-19T08:18:27;8.30;;;6.90;;
57339;SDS011;43174;50.930;18.170;2022-08-19T08:20:53;6.80;;;6.30;;
57339;SDS011;43174;50.930;18.170;2022-08-19T08:23:19;7.40;;;6.70;;
57339;SDS011;43174;50.930;18.170;2022-08-19T08:25:47;8.70;;;6.30;;
57339;SDS011;43174;50.930;18.170;2022-08-19T08:28:14;14.20;;;6.30;;
57339;SDS011;43174;50.930;18.170;2022-08-19T08:30:40;13.80;;;6.20;;
57339;SDS011;43174;50.930;18.170;2022-08-19T08:33:07;13.50;;;5.70;;
57339;SDS011;43174;50.930;18.170;2022-08-19T08:35:33;15.40;;;6.20;;
57339;SDS011;43174;50.930;18.170;2022-08-19T08:37:59;6.40;;;5.70;;
57339;SDS011;43174;50.930;18.170;2022-08-19T08:40:45;12.10;;;6.70;;
57339;SDS011;43174;50.930;18.170;2022-08-19T08:45:48;9.30;;;5.40;;
57339;SDS011;43174;50.930;18.170;2022-08-19T08:48:18;7.30;;;5.30;;
57339;SDS011;43174;50.930;18.170;2022-08-19T08:50:46;10.00;;;5.20;;
57339;SDS011;43174;50.930;18.170;2022-08-19T08:53:14;11.10;;;4.50;;
57339;SDS011;43174;50.930;18.170;2022-08-19T08:55:41;10.80;;;4.80;;
57339;SDS011;43174;50.930;18.170;2022-08-19T09:00:46;14.10;;;4.40;;
57339;SDS011;43174;50.930;18.170;2022-08-19T09:03:33;8.20;;;4.40;;
57339;SDS011;43174;50.930;18.170;2022-08-19T09:08:36;10.00;;;4.80;;
57339;SDS011;43174;50.930;18.170;2022-08-19T09:11:06;9.90;;;4.90;;
57339;SDS011;43174;50.930;18.170;2022-08-19T09:13:44;8.00;;;4.40;;
57339;SDS011;43174;50.930;18.170;2022-08-19T09:16:16;8.30;;;4.90;;
57339;SDS011;43174;50.930;18.170;2022-08-19T09:18:48;8.30;;;5.70;;
57339;SDS011;43174;50.930;18.170;2022-08-19T09:21:15;12.10;;;4.80;;
57339;SDS011;43174;50.930;18.170;2022-08-19T09:23:43;6.40;;;4.80;;
57339;SDS011;43174;50.930;18.170;2022-08-19T09:26:15;7.40;;;4.60;;
57339;SDS011;43174;50.930;18.170;2022-08-19T09:28:42;7.50;;;4.90;;
57339;SDS011;43174;50.930;18.170;2022-08-19T09:31:11;14.90;;;4.80;;
57339;SDS011;43174;50.930;18.170;2022-08-19T09:33:37;8.10;;;4.90;;
57339;SDS011;43174;50.930;18.170;2022-08-19T09:36:04;10.90;;;5.50;;
57339;SDS011;43174;50.930;18.170;2022-08-19T09:38:31;10.70;;;5.40;;
57339;SDS011;43174;50.930;18.170;2022-08-19T09:41:01;12.70;;;5.70;;
57339;SDS011;43174;50.930;18.170;2022-08-19T09:43:27;8.70;;;5.00;;
57339;SDS011;43174;50.930;18.170;2022-08-19T09:45:53;10.40;;;5.20;;
57339;SDS011;43174;50.930;18.170;2022-08-19T09:48:18;12.90;;;5.70;;
57339;SDS011;43174;50.930;18.170;2022-08-19T09:50:45;10.50;;;5.50;;
57339;SDS011;43174;50.930;18.170;2022-08-19T09:53:11;8.10;;;5.00;;
57339;SDS011;43174;50.930;18.170;2022-08-19T09:55:41;12.30;;;5.80;;
57339;SDS011;43174;50.930;18.170;2022-08-19T09:58:07;8.90;;;6.00;;
57339;SDS011;43174;50.930;18.170;2022-08-19T10:00:33;10.40;;;5.60;;
57339;SDS011;43174;50.930;18.170;2022-08-19T10:02:58;6.60;;;5.50;;
57339;SDS011;43174;50.930;18.170;2022-08-19T10:05:24;7.80;;;5.20;;
57339;SDS011;43174;50.930;18.170;2022-08-19T10:08:09;9.20;;;5.30;;
57339;SDS011;43174;50.930;18.170;2022-08-19T10:10:36;7.50;;;5.10;;
57339;SDS011;43174;50.930;18.170;2022-08-19T10:13:02;6.50;;;4.90;;
57339;SDS011;43174;50.930;18.170;2022-08-19T10:15:28;8.40;;;5.60;;
57339;SDS011;43174;50.930;18.170;2022-08-19T10:17:53;6.00;;;5.20;;
57339;SDS011;43174;50.930;18.170;2022-08-19T10:20:19;11.20;;;4.80;;
57339;SDS011;43174;50.930;18.170;2022-08-19T10:22:44;7.90;;;4.70;;
57339;SDS011;43174;50.930;18.170;2022-08-19T10:25:10;9.80;;;4.50;;
57339;SDS011;43174;50.930;18.170;2022-08-19T10:27:36;11.30;;;4.70;;
57339;SDS011;43174;50.930;18.170;2022-08-19T10:30:03;9.00;;;4.40;;
57339;SDS011;43174;50.930;18.170;2022-08-19T10:32:29;8.20;;;3.60;;
57339;SDS011;43174;50.930;18.170;2022-08-19T10:34:55;10.10;;;4.60;;
57339;SDS011;43174;50.930;18.170;2022-08-19T10:37:21;11.10;;;5.10;;
57339;SDS011;43174;50.930;18.170;2022-08-19T10:39:47;6.90;;;4.50;;
57339;SDS011;43174;50.930;18.170;2022-08-19T10:42:15;6.70;;;4.50;;
57339;SDS011;43174;50.930;18.170;2022-08-19T10:44:42;11.50;;;5.40;;
57339;SDS011;43174;50.930;18.170;2022-08-19T10:47:07;6.70;;;5.60;;
57339;SDS011;43174;50.930;18.170;2022-08-19T10:49:33;9.60;;;5.80;;
57339;SDS011;43174;50.930;18.170;2022-08-19T10:52:19;7.30;;;5.00;;
57339;SDS011;43174;50.930;18.170;2022-08-19T10:55:00;22.50;;;6.30;;
57339;SDS011;43174;50.930;18.170;2022-08-19T10:57:45;11.70;;;6.20;;
57339;SDS011;43174;50.930;18.170;2022-08-19T11:00:11;9.90;;;6.10;;
57339;SDS011;43174;50.930;18.170;2022-08-19T11:02:37;9.60;;;5.30;;
57339;SDS011;43174;50.930;18.170;2022-08-19T11:05:03;12.90;;;5.60;;
57339;SDS011;43174;50.930;18.170;2022-08-19T11:07:29;15.80;;;5.80;;
57339;SDS011;43174;50.930;18.170;2022-08-19T11:09:55;10.40;;;6.00;;
57339;SDS011;43174;50.930;18.170;2022-08-19T11:12:20;7.50;;;5.40;;
57339;SDS011;43174;50.930;18.170;2022-08-19T11:14:46;13.00;;;5.70;;
57339;SDS011;43174;50.930;18.170;2022-08-19T11:17:15;10.50;;;6.00;;
57339;SDS011;43174;50.930;18.170;2022-08-19T11:19:41;6.30;;;5.00;;
57339;SDS011;43174;50.930;18.170;2022-08-19T11:22:08;7.60;;;5.60;;
57339;SDS011;43174;50.930;18.170;2022-08-19T11:24:35;14.50;;;5.70;;
57339;SDS011;43174;50.930;18.170;2022-08-19T11:27:05;9.50;;;5.70;;
57339;SDS011;43174;50.930;18.170;2022-08-19T11:29:32;12.80;;;6.20;;
57339;SDS011;43174;50.930;18.170;2022-08-19T11:31:59;13.10;;;5.40;;
57339;SDS011;43174;50.930;18.170;2022-08-19T11:34:26;14.20;;;5.00;;
57339;SDS011;43174;50.930;18.170;2022-08-19T11:36:53;10.70;;;5.20;;
57339;SDS011;43174;50.930;18.170;2022-08-19T11:39:23;15.20;;;5.50;;
57339;SDS011;43174;50.930;18.170;2022-08-19T11:41:49;10.20;;;5.30;;
57339;SDS011;43174;50.930;18.170;2022-08-19T11:44:14;9.80;;;5.10;;
57339;SDS011;43174;50.930;18.170;2022-08-19T11:46:40;15.10;;;5.50;;
57339;SDS011;43174;50.930;18.170;2022-08-19T11:49:06;11.90;;;5.10;;
57339;SDS011;43174;50.930;18.170;2022-08-19T11:51:35;14.40;;;5.80;;
57339;SDS011;43174;50.930;18.170;2022-08-19T11:54:00;7.30;;;5.20;;
57339;SDS011;43174;50.930;18.170;2022-08-19T11:56:27;11.70;;;5.50;;
57339;SDS011;43174;50.930;18.170;2022-08-19T11:58:53;13.60;;;6.00;;
57339;SDS011;43174;50.930;18.170;2022-08-19T12:01:20;9.20;;;5.60;;
57339;SDS011;43174;50.930;18.170;2022-08-19T12:03:47;8.80;;;5.40;;
57339;SDS011;43174;50.930;18.170;2022-08-19T12:06:14;14.20;;;5.60;;
57339;SDS011;43174;50.930;18.170;2022-08-19T12:08:40;16.60;;;5.40;;
57339;SDS011;43174;50.930;18.170;2022-08-19T12:11:06;12.60;;;5.90;;
57339;SDS011;43174;50.930;18.170;2022-08-19T12:13:35;8.20;;;5.30;;
57339;SDS011;43174;50.930;18.170;2022-08-19T12:16:00;10.10;;;5.50;;
57339;SDS011;43174;50.930;18.170;2022-08-19T12:18:32;11.20;;;5.90;;
57339;SDS011;43174;50.930;18.170;2022-08-19T12:20:57;11.20;;;6.00;;
57339;SDS011;43174;50.930;18.170;2022-08-19T12:23:23;10.20;;;5.80;;
57339;SDS011;43174;50.930;18.170;2022-08-19T12:25:48;8.60;;;5.70;;
57339;SDS011;43174;50.930;18.170;2022-08-19T12:28:21;8.70;;;4.80;;
57339;SDS011;43174;50.930;18.170;2022-08-19T12:30:47;14.20;;;5.10;;
57339;SDS011;43174;50.930;18.170;2022-08-19T12:33:13;9.50;;;5.20;;
57339;SDS011;43174;50.930;18.170;2022-08-19T12:35:41;8.70;;;5.40;;
57339;SDS011;43174;50.930;18.170;2022-08-19T12:38:08;14.10;;;5.70;;
57339;SDS011;43174;50.930;18.170;2022-08-19T12:40:33;5.60;;;4.90;;
57339;SDS011;43174;50.930;18.170;2022-08-19T12:42:59;11.00;;;4.80;;
57339;SDS011;43174;50.930;18.170;2022-08-19T12:45:24;11.60;;;5.40;;
57339;SDS011;43174;50.930;18.170;2022-08-19T12:47:50;9.80;;;5.40;;
57339;SDS011;43174;50.930;18.170;2022-08-19T12:50:16;6.30;;;5.20;;
57339;SDS011;43174;50.930;18.170;2022-08-19T12:52:42;7.60;;;5.10;;
57339;SDS011;43174;50.930;18.170;2022-08-19T12:55:08;10.10;;;5.30;;
57339;SDS011;43174;50.930;18.170;2022-08-19T12:57:33;5.80;;;5.20;;
57339;SDS011;43174;50.930;18.170;2022-08-19T13:00:03;9.90;;;5.20;;
57339;SDS011;43174;50.930;18.170;2022-08-19T13:02:30;10.40;;;5.80;;
57339;SDS011;43174;50.930;18.170;2022-08-19T13:04:57;10.20;;;5.40;;
57339;SDS011;43174;50.930;18.170;2022-08-19T13:07:23;8.20;;;5.00;;
57339;SDS011;43174;50.930;18.170;2022-08-19T13:09:51;7.40;;;5.20;;
57339;SDS011;43174;50.930;18.170;2022-08-19T13:12:16;9.80;;;5.50;;
57339;SDS011;43174;50.930;18.170;2022-08-19T13:14:42;10.30;;;5.10;;
57339;SDS011;43174;50.930;18.170;2022-08-19T13:17:08;7.60;;;5.00;;
57339;SDS011;43174;50.930;18.170;2022-08-19T13:19:35;11.90;;;5.30;;
57339;SDS011;43174;50.930;18.170;2022-08-19T13:22:01;12.50;;;5.30;;
57339;SDS011;43174;50.930;18.170;2022-08-19T13:24:28;7.10;;;5.00;;
57339;SDS011;43174;50.930;18.170;2022-08-19T13:26:54;8.00;;;4.40;;
57339;SDS011;43174;50.930;18.170;2022-08-19T13:29:19;7.90;;;5.00;;
57339;SDS011;43174;50.930;18.170;2022-08-19T13:32:03;7.50;;;4.60;;
57339;SDS011;43174;50.930;18.170;2022-08-19T13:34:48;12.70;;;4.70;;
57339;SDS011;43174;50.930;18.170;2022-08-19T13:37:13;9.10;;;4.70;;
57339;SDS011;43174;50.930;18.170;2022-08-19T13:39:39;11.20;;;5.20;;
57339;SDS011;43174;50.930;18.170;2022-08-19T13:42:05;10.20;;;5.10;;
57339;SDS011;43174;50.930;18.170;2022-08-19T13:44:32;12.00;;;5.50;;
57339;SDS011;43174;50.930;18.170;2022-08-19T13:47:01;6.90;;;4.70;;
57339;SDS011;43174;50.930;18.170;2022-08-19T13:49:30;9.10;;;4.90;;
57339;SDS011;43174;50.930;18.170;2022-08-19T13:51:56;7.70;;;4.60;;
57339;SDS011;43174;50.930;18.170;2022-08-19T13:54:22;9.90;;;5.10;;
57339;SDS011;43174;50.930;18.170;2022-08-19T13:56:48;8.80;;;4.20;;
57339;SDS011;43174;50.930;18.170;2022-08-19T13:59:14;7.40;;;4.40;;
57339;SDS011;43174;50.930;18.170;2022-08-19T14:01:40;10.50;;;4.80;;
57339;SDS011;43174;50.930;18.170;2022-08-19T14:04:06;7.80;;;4.90;;
57339;SDS011;43174;50.930;18.170;2022-08-19T14:06:32;6.90;;;4.50;;
57339;SDS011;43174;50.930;18.170;2022-08-19T14:08:58;12.00;;;4.40;;
57339;SDS011;43174;50.930;18.170;2022-08-19T14:11:23;10.10;;;4.60;;
57339;SDS011;43174;50.930;18.170;2022-08-19T14:13:49;11.70;;;4.60;;
57339;SDS011;43174;50.930;18.170;2022-08-19T14:16:15;9.20;;;4.20;;
57339;SDS011;43174;50.930;18.170;2022-08-19T14:18:41;5.40;;;3.50;;
57339;SDS011;43174;50.930;18.170;2022-08-19T14:21:07;7.60;;;4.20;;
57339;SDS011;43174;50.930;18.170;2022-08-19T14:23:34;5.80;;;3.80;;
57339;SDS011;43174;50.930;18.170;2022-08-19T14:26:05;10.40;;;4.20;;
57339;SDS011;43174;50.930;18.170;2022-08-19T14:28:31;8.90;;;4.60;;
57339;SDS011;43174;50.930;18.170;2022-08-19T14:30:56;8.80;;;4.30;;
57339;SDS011;43174;50.930;18.170;2022-08-19T14:33:22;6.60;;;4.20;;
57339;SDS011;43174;50.930;18.170;2022-08-19T14:35:47;10.70;;;5.00;;